createdAt,value
2018-11-02T00:00:25.797Z,74.21
2018-11-02T00:02:54.958Z,73.19
2018-11-02T00:05:24.176Z,72.90
2018-11-02T00:07:53.366Z,73.65
2018-11-02T00:10:22.593Z,73.76
2018-11-02T00:12:51.793Z,73.83
2018-11-02T00:15:20.996Z,73.42
2018-11-02T00:17:50.204Z,72.82
2018-11-02T00:20:20.135Z,73.62
2018-11-02T00:22:49.418Z,73.42
2018-11-02T00:25:19.044Z,72.97
2018-11-02T00:27:48.247Z,72.78
2018-11-02T00:30:18.300Z,72.42
2018-11-02T00:32:47.538Z,72.11
2018-11-02T00:35:18.335Z,71.75
2018-11-02T00:37:47.684Z,71.55
2018-11-02T00:40:17.846Z,72.19
2018-11-02T00:42:47.035Z,72.23
2018-11-02T00:45:17.143Z,72.31
2018-11-02T00:47:46.325Z,72.31
2018-11-02T00:50:16.176Z,72.12
2018-11-02T00:52:45.383Z,72.23
2018-11-02T00:55:15.183Z,72.22
2018-11-02T00:57:44.396Z,72.48
2018-11-02T01:00:16.108Z,72.47
2018-11-02T01:02:45.632Z,72.95
2018-11-02T01:05:15.086Z,72.83
2018-11-02T01:07:44.372Z,72.63
2018-11-02T01:10:14.709Z,72.96
2018-11-02T01:12:43.935Z,72.86
2018-11-02T01:15:14.142Z,72.86
2018-11-02T01:17:43.342Z,73.08
2018-11-02T01:20:12.798Z,73.21
2018-11-02T01:22:42.030Z,73.19
2018-11-02T01:25:12.253Z,73.23
2018-11-02T01:27:41.465Z,73.12
2018-11-02T01:30:10.681Z,73.29
2018-11-02T01:32:39.876Z,72.99
2018-11-02T01:35:12.167Z,73.51
2018-11-02T01:37:41.500Z,74.47
2018-11-02T01:40:10.616Z,74.65
2018-11-02T01:42:39.861Z,74.54
2018-11-02T01:45:09.093Z,75.92
2018-11-02T01:47:38.355Z,75.58
2018-11-02T01:50:07.713Z,75.64
2018-11-02T01:52:37.043Z,74.91
2018-11-02T01:55:06.973Z,75.15
2018-11-02T01:57:36.193Z,74.65
2018-11-02T02:00:06.567Z,74.63
2018-11-02T02:02:35.820Z,74.65
2018-11-02T02:05:05.643Z,74.72
2018-11-02T02:07:34.870Z,74.70
2018-11-02T02:10:04.082Z,75.11
2018-11-02T02:12:33.309Z,74.95
2018-11-02T02:15:02.539Z,75.96
2018-11-02T02:17:31.740Z,76.53
2018-11-02T02:20:00.966Z,76.54
2018-11-02T02:22:30.160Z,76.80
2018-11-02T02:24:59.420Z,76.52
2018-11-02T02:27:28.655Z,76.31
2018-11-02T02:29:57.828Z,76.70
2018-11-02T02:32:27.011Z,75.56
2018-11-02T02:34:56.186Z,75.06
2018-11-02T02:37:25.382Z,74.68
2018-11-02T02:39:54.576Z,74.16
2018-11-02T02:42:23.781Z,75.01
2018-11-02T02:44:52.975Z,74.21
2018-11-02T02:47:22.227Z,73.72
2018-11-02T02:49:51.530Z,74.28
2018-11-02T02:52:20.773Z,75.05
2018-11-02T02:54:49.968Z,74.95
2018-11-02T02:57:19.265Z,75.42
2018-11-02T02:59:48.495Z,75.59
2018-11-02T03:02:17.882Z,75.55
2018-11-02T03:04:47.067Z,75.77
2018-11-02T03:07:16.600Z,75.93
2018-11-02T03:09:45.798Z,76.53
2018-11-02T03:12:15.863Z,76.52
2018-11-02T03:14:45.121Z,77.04
2018-11-02T03:17:15.054Z,77.47
2018-11-02T03:19:44.292Z,77.51
2018-11-02T03:22:13.701Z,77.85
2018-11-02T03:24:42.856Z,77.81
2018-11-02T03:27:12.133Z,78.13
2018-11-02T03:29:41.327Z,77.72
2018-11-02T03:32:10.515Z,78.28
2018-11-02T03:34:39.697Z,78.51
2018-11-02T03:37:08.933Z,78.24
2018-11-02T03:39:38.147Z,78.76
2018-11-02T03:42:07.757Z,78.50
2018-11-02T03:44:37.005Z,78.44
2018-11-02T03:47:06.298Z,78.13
2018-11-02T03:49:35.596Z,78.03
2018-11-02T03:52:04.887Z,78.17
2018-11-02T03:54:34.133Z,78.43
2018-11-02T03:57:03.427Z,78.47
2018-11-02T03:59:32.558Z,78.62
2018-11-02T04:02:01.801Z,79.06
2018-11-02T04:04:30.991Z,78.86
2018-11-02T04:07:00.182Z,78.62
2018-11-02T04:24:33.108Z,77.94
2018-11-02T04:27:02.278Z,77.25
2018-11-02T04:29:31.451Z,77.25
2018-11-02T04:32:00.640Z,76.75
2018-11-02T04:34:29.811Z,77.45
2018-11-02T04:36:58.982Z,76.77
2018-11-02T04:39:28.164Z,76.76
2018-11-02T04:41:57.287Z,77.14
2018-11-02T04:44:26.496Z,76.90
2018-11-02T04:46:55.691Z,76.47
2018-11-02T04:49:24.978Z,76.42
2018-11-02T04:51:54.124Z,76.99
2018-11-02T04:54:23.298Z,76.22
2018-11-02T04:56:52.481Z,76.08
2018-11-02T04:59:22.580Z,76.58
2018-11-02T05:01:51.773Z,75.52
2018-11-02T05:04:20.996Z,76.17
2018-11-02T05:06:50.191Z,76.05
2018-11-02T05:09:19.436Z,76.31
2018-11-02T05:11:48.670Z,76.69
2018-11-02T05:14:18.174Z,76.91
2018-11-02T05:16:47.332Z,76.92
2018-11-02T05:19:16.874Z,77.18
2018-11-02T05:21:45.995Z,76.82
2018-11-02T05:24:15.463Z,77.67
2018-11-02T05:26:44.631Z,77.54
2018-11-02T05:29:14.398Z,77.50
2018-11-02T05:31:43.535Z,77.49
2018-11-02T05:34:12.708Z,77.52
2018-11-02T05:36:41.859Z,77.32
2018-11-02T05:39:12.630Z,77.66
2018-11-02T05:41:41.866Z,78.26
2018-11-02T05:44:11.171Z,78.62
2018-11-02T05:46:40.913Z,78.56
2018-11-02T05:49:10.091Z,78.51
2018-11-02T05:51:39.310Z,78.16
2018-11-02T05:54:08.553Z,78.79
2018-11-02T05:56:37.632Z,78.49
2018-11-02T05:59:06.879Z,78.54
2018-11-02T06:01:36.103Z,78.28
2018-11-02T06:04:05.373Z,78.39
2018-11-02T06:06:34.588Z,78.35
2018-11-02T06:09:04.436Z,78.18
2018-11-02T06:11:33.603Z,78.25
2018-11-02T06:14:02.787Z,78.47
2018-11-02T06:16:32.122Z,78.89
2018-11-02T06:19:01.227Z,78.57
2018-11-02T06:21:30.480Z,78.16
2018-11-02T06:23:59.678Z,78.54
2018-11-02T06:26:28.790Z,79.09
2018-11-02T06:28:57.951Z,78.65
2018-11-02T06:31:27.131Z,78.59
2018-11-02T06:33:56.351Z,78.78
2018-11-02T06:36:25.646Z,78.81
2018-11-02T06:38:54.907Z,79.01
2018-11-02T06:41:24.023Z,79.19
2018-11-02T06:43:53.210Z,78.72
2018-11-02T06:46:22.365Z,79.75
2018-11-02T06:48:51.549Z,79.08
2018-11-02T06:51:20.709Z,76.05
2018-11-02T06:53:50.069Z,72.28
2018-11-02T06:56:19.208Z,69.42
2018-11-02T06:58:48.383Z,69.05
2018-11-02T07:01:17.645Z,68.71
2018-11-02T07:03:46.948Z,68.08
2018-11-02T07:06:16.107Z,69.22
2018-11-02T07:08:45.275Z,69.06
2018-11-02T07:11:14.440Z,67.14
2018-11-02T07:13:43.638Z,63.31
2018-11-02T07:16:12.858Z,62.44
2018-11-02T07:18:42.113Z,61.53
2018-11-02T07:21:11.424Z,59.08
2018-11-02T07:23:40.574Z,60.19
2018-11-02T07:26:10.181Z,59.29
2018-11-02T07:28:39.344Z,58.00
2018-11-02T07:31:08.833Z,56.70
2018-11-02T07:33:38.099Z,56.72
2018-11-02T07:36:07.500Z,55.71
2018-11-02T07:38:36.655Z,54.77
2018-11-02T07:41:06.001Z,54.15
2018-11-02T07:43:35.139Z,56.17
2018-11-02T07:46:04.394Z,54.05
2018-11-02T07:48:33.530Z,54.00
2018-11-02T07:51:02.702Z,53.67
2018-11-02T07:53:31.980Z,53.62
2018-11-02T07:56:01.156Z,53.45
2018-11-02T07:58:30.394Z,52.34
2018-11-02T08:00:59.804Z,53.31
2018-11-02T08:03:28.993Z,53.46
2018-11-02T08:05:58.175Z,55.10
2018-11-02T08:08:27.295Z,56.71
2018-11-02T08:10:56.493Z,57.65
2018-11-02T08:13:25.664Z,58.22
2018-11-02T08:15:54.846Z,57.86
2018-11-02T08:18:24.021Z,58.82
2018-11-02T08:20:53.194Z,58.55
2018-11-02T08:23:22.388Z,59.87
2018-11-02T08:25:51.584Z,60.15
2018-11-02T08:28:20.898Z,60.23
2018-11-02T08:30:50.067Z,60.80
2018-11-02T08:33:19.243Z,60.22
2018-11-02T08:35:48.413Z,60.11
2018-11-02T08:38:17.571Z,59.05
2018-11-02T08:40:46.731Z,58.28
2018-11-02T08:43:15.893Z,58.28
2018-11-02T08:45:45.043Z,58.16
2018-11-02T08:48:14.242Z,58.21
2018-11-02T08:50:43.372Z,58.26
2018-11-02T08:53:12.605Z,58.56
2018-11-02T08:55:41.760Z,57.50
2018-11-02T08:58:11.646Z,58.67
2018-11-02T09:00:40.830Z,61.10
2018-11-02T09:03:10.521Z,56.77
2018-11-02T09:05:39.666Z,60.21
2018-11-02T09:08:09.426Z,58.13
2018-11-02T09:10:38.559Z,58.47
2018-11-02T09:13:07.756Z,59.84
2018-11-02T09:15:36.925Z,58.00
2018-11-02T09:18:06.248Z,58.37
2018-11-02T09:20:35.502Z,60.82
2018-11-02T09:23:04.764Z,60.49
2018-11-02T09:25:34.047Z,59.71
2018-11-02T09:28:03.311Z,57.84
2018-11-02T09:30:32.394Z,56.51
2018-11-02T09:33:01.543Z,58.39
2018-11-02T09:35:30.708Z,58.78
2018-11-02T09:37:59.884Z,57.81
2018-11-02T09:40:29.119Z,57.75
2018-11-02T09:42:58.213Z,57.94
2018-11-02T09:45:27.359Z,58.57
2018-11-02T09:47:56.519Z,58.08
2018-11-02T09:50:25.670Z,58.54
2018-11-02T09:52:54.815Z,57.74
2018-11-02T09:55:23.985Z,59.02
2018-11-02T09:57:53.215Z,58.48
2018-11-02T10:00:22.381Z,58.72
2018-11-02T10:02:51.843Z,58.45
2018-11-02T10:05:21.067Z,58.09
2018-11-02T10:07:50.230Z,58.91
2018-11-02T10:10:19.453Z,58.64
2018-11-02T10:12:48.666Z,57.75
2018-11-02T10:15:17.858Z,57.65
2018-11-02T10:17:47.052Z,57.91
2018-11-02T10:20:16.223Z,57.98
2018-11-02T10:22:45.363Z,58.97
2018-11-02T10:25:15.540Z,58.30
2018-11-02T10:27:44.707Z,57.96
2018-11-02T10:30:14.987Z,58.54
2018-11-02T10:32:45.895Z,57.96
2018-11-02T10:35:15.205Z,57.43
2018-11-02T10:37:44.395Z,58.13
2018-11-02T10:40:15.839Z,58.70
2018-11-02T10:42:50.979Z,58.65
2018-11-02T10:45:20.388Z,57.92
2018-11-02T10:47:49.581Z,57.15
2018-11-02T10:50:18.891Z,56.96
2018-11-02T10:52:48.052Z,57.66
2018-11-02T10:55:17.367Z,56.58
2018-11-02T10:57:46.575Z,57.20
2018-11-02T11:00:23.238Z,57.25
2018-11-02T11:02:53.832Z,57.02
2018-11-02T11:05:24.645Z,57.77
2018-11-02T11:07:54.947Z,57.65
2018-11-02T11:10:25.345Z,57.48
2018-11-02T11:12:56.137Z,57.20
2018-11-02T11:15:25.140Z,57.30
2018-11-02T11:17:54.321Z,57.58
2018-11-02T11:20:23.495Z,57.08
2018-11-02T11:22:52.675Z,56.29
2018-11-02T11:25:21.849Z,57.17
2018-11-02T11:27:51.051Z,56.63
2018-11-02T11:30:20.923Z,56.33
2018-11-02T11:32:51.018Z,55.18
2018-11-02T11:35:20.382Z,55.29
2018-11-02T11:37:49.564Z,55.79
2018-11-02T11:40:20.016Z,56.16
2018-11-02T11:42:49.239Z,55.50
2018-11-02T11:45:19.279Z,55.64
2018-11-02T11:47:48.486Z,54.90
2018-11-02T11:50:19.624Z,54.34
2018-11-02T11:52:50.013Z,53.58
2018-11-02T11:55:19.437Z,54.28
2018-11-02T11:57:48.666Z,53.73
2018-11-02T12:00:19.502Z,53.80
2018-11-02T12:02:49.467Z,52.16
2018-11-02T12:05:19.912Z,52.70
2018-11-02T12:07:50.299Z,51.99
2018-11-02T12:10:22.869Z,51.85
2018-11-02T12:12:52.093Z,51.81
2018-11-02T12:15:22.249Z,51.73
2018-11-02T12:17:51.738Z,52.30
2018-11-02T12:20:25.220Z,52.07
2018-11-02T12:23:02.162Z,50.22
2018-11-02T12:25:31.326Z,50.42
2018-11-02T12:28:00.522Z,50.15
2018-11-02T12:30:29.677Z,50.13
2018-11-02T12:32:58.860Z,49.79
2018-11-02T12:35:28.052Z,49.59
2018-11-02T12:37:57.214Z,49.86
2018-11-02T12:40:26.365Z,50.26
2018-11-02T12:42:56.205Z,50.31
2018-11-02T12:45:25.319Z,50.17
2018-11-02T12:47:54.600Z,51.04
2018-11-02T12:50:26.038Z,50.77
2018-11-02T12:52:56.509Z,50.87
2018-11-02T12:55:25.693Z,50.46
2018-11-02T12:57:54.860Z,50.73
2018-11-02T13:00:25.296Z,50.94
2018-11-02T13:02:54.935Z,50.92
2018-11-02T13:05:24.159Z,50.08
2018-11-02T13:07:53.304Z,50.70
2018-11-02T13:10:23.137Z,51.39
2018-11-02T13:12:52.479Z,51.89
2018-11-02T13:15:22.950Z,50.67
2018-11-02T13:17:52.233Z,51.44
2018-11-02T13:20:21.471Z,51.27
2018-11-02T13:22:51.040Z,51.96
2018-11-02T13:25:21.312Z,51.94
2018-11-02T13:27:51.114Z,51.75
2018-11-02T13:30:20.401Z,52.18
2018-11-02T13:32:49.440Z,52.59
2018-11-02T13:35:19.600Z,52.87
2018-11-02T13:37:49.336Z,52.41
2018-11-02T13:40:19.011Z,52.03
2018-11-02T13:42:48.222Z,51.75
2018-11-02T13:45:18.238Z,51.74
2018-11-02T13:47:47.399Z,51.03
2018-11-02T13:50:16.614Z,50.73
2018-11-02T13:52:45.912Z,49.98
2018-11-02T13:55:15.282Z,50.30
2018-11-02T13:57:44.427Z,49.44
2018-11-02T14:00:15.664Z,49.07
2018-11-02T14:02:44.795Z,49.00
2018-11-02T14:05:15.257Z,49.79
2018-11-02T14:07:44.462Z,48.70
2018-11-02T14:10:14.192Z,47.48
2018-11-02T14:12:43.387Z,48.39
2018-11-02T14:15:15.005Z,48.76
2018-11-02T14:17:44.299Z,48.99
2018-11-02T14:20:14.323Z,50.21
2018-11-02T14:22:43.451Z,50.53
2018-11-02T14:25:15.262Z,50.50
2018-11-02T14:27:44.657Z,51.08
2018-11-02T14:30:15.087Z,50.27
2018-11-02T14:32:44.469Z,51.47
2018-11-02T14:35:13.843Z,52.37
2018-11-02T14:37:43.029Z,53.08
2018-11-02T14:40:12.711Z,53.75
2018-11-02T14:42:42.338Z,53.76
2018-11-02T14:45:15.788Z,53.82
2018-11-02T14:47:45.994Z,54.15
2018-11-02T14:50:15.167Z,55.05
2018-11-02T14:52:44.326Z,53.65
2018-11-02T14:55:13.851Z,54.70
2018-11-02T14:57:43.023Z,53.60
2018-11-02T15:00:12.785Z,53.85
2018-11-02T15:02:42.327Z,54.30
2018-11-02T15:05:13.175Z,55.28
2018-11-02T15:07:43.146Z,55.83
2018-11-02T15:10:12.486Z,56.19
2018-11-02T15:12:41.616Z,56.04
2018-11-02T15:15:11.621Z,55.96
2018-11-02T15:17:40.888Z,56.73
2018-11-02T15:23:04.324Z,58.20
2018-11-02T15:25:33.470Z,58.64
2018-11-02T15:28:02.655Z,59.65
2018-11-02T15:30:31.865Z,59.56
2018-11-02T15:33:01.046Z,59.00
2018-11-02T15:35:30.200Z,60.13
2018-11-02T15:37:59.368Z,59.16
2018-11-02T15:40:28.506Z,59.93
2018-11-02T15:42:57.693Z,60.05
2018-11-02T15:45:26.926Z,59.46
2018-11-02T15:47:56.130Z,60.21
2018-11-02T15:50:25.335Z,60.71
2018-11-02T15:52:54.503Z,60.77
2018-11-02T15:55:23.660Z,60.76
2018-11-02T15:57:52.816Z,60.97
2018-11-02T16:00:22.038Z,61.11
2018-11-02T16:02:52.133Z,61.02
2018-11-02T16:05:21.359Z,59.87
2018-11-02T16:07:50.518Z,60.33
2018-11-02T16:10:19.733Z,60.64
2018-11-02T16:12:48.887Z,59.88
2018-11-02T16:15:18.056Z,60.28
2018-11-02T16:17:47.206Z,60.62
2018-11-02T16:20:16.615Z,60.83
2018-11-02T16:22:46.002Z,60.95
2018-11-02T16:25:15.319Z,60.77
2018-11-02T16:27:44.447Z,60.66
2018-11-02T16:30:13.692Z,61.21
2018-11-02T16:32:42.835Z,60.97
2018-11-02T16:35:12.693Z,61.84
2018-11-02T16:37:41.867Z,61.37
2018-11-02T16:40:12.707Z,61.18
2018-11-02T16:42:42.128Z,61.63
2018-11-02T16:45:12.485Z,61.49
2018-11-02T16:47:42.237Z,60.58
2018-11-02T16:50:12.491Z,61.56
2018-11-02T16:52:42.067Z,61.64
2018-11-02T16:55:11.305Z,61.05
2018-11-02T16:57:41.465Z,62.46
2018-11-02T17:00:15.259Z,62.50
2018-11-02T17:02:45.456Z,61.97
2018-11-02T17:05:15.524Z,61.84
2018-11-02T17:07:44.767Z,61.37
2018-11-02T17:10:15.721Z,61.31
2018-11-02T17:12:45.247Z,62.16
2018-11-02T17:15:15.764Z,62.28
2018-11-02T17:17:45.015Z,61.71
2018-11-02T17:20:17.763Z,61.71
2018-11-02T17:22:47.225Z,61.89
2018-11-02T17:25:17.917Z,61.47
2018-11-02T17:27:47.095Z,61.37
2018-11-02T17:30:18.490Z,61.92
2018-11-02T17:32:47.663Z,61.09
2018-11-02T17:35:17.830Z,61.06
2018-11-02T17:37:47.019Z,60.75
2018-11-02T17:40:17.858Z,61.34
2018-11-02T17:42:47.042Z,60.81
2018-11-02T17:45:17.178Z,61.75
2018-11-02T17:47:46.489Z,60.88
2018-11-02T17:50:16.826Z,60.75
2018-11-02T17:52:45.996Z,59.43
2018-11-02T17:55:17.155Z,58.37
2018-11-02T17:57:46.320Z,58.50
2018-11-02T18:00:17.533Z,57.92
2018-11-02T18:02:46.708Z,58.62
2018-11-02T18:05:16.941Z,58.51
2018-11-02T18:07:46.076Z,57.84
2018-11-02T18:10:16.887Z,58.74
2018-11-02T18:12:46.068Z,58.57
2018-11-02T18:15:16.089Z,59.27
2018-11-02T18:17:45.253Z,58.54
2018-11-02T18:20:16.516Z,59.01
2018-11-02T18:22:46.710Z,58.53
2018-11-02T18:25:16.845Z,57.75
2018-11-02T18:27:45.998Z,57.85
2018-11-02T18:30:16.079Z,58.38
2018-11-02T18:32:45.317Z,58.79
2018-11-02T18:35:15.249Z,59.08
2018-11-02T18:37:44.347Z,58.55
2018-11-02T18:40:14.817Z,58.76
2018-11-02T18:42:44.029Z,59.00
2018-11-02T18:45:14.425Z,59.50
2018-11-02T18:47:43.894Z,59.49
2018-11-02T18:50:15.116Z,59.97
2018-11-02T18:52:44.465Z,59.82
2018-11-02T18:55:14.001Z,60.78
2018-11-02T18:57:43.206Z,60.60
2018-11-02T19:00:13.340Z,60.97
2018-11-02T19:02:42.613Z,61.39
2018-11-02T19:05:15.290Z,61.60
2018-11-02T19:07:44.511Z,62.18
2018-11-02T19:10:15.719Z,61.96
2018-11-02T19:12:45.171Z,62.49
2018-11-02T19:15:17.698Z,62.81
2018-11-02T19:17:46.880Z,62.08
2018-11-02T19:20:16.857Z,61.97
2018-11-02T19:22:46.556Z,61.50
2018-11-02T19:25:17.381Z,61.87
2018-11-02T19:27:46.916Z,62.68
2018-11-02T19:30:17.396Z,61.54
2018-11-02T19:32:46.602Z,60.84
2018-11-02T19:35:16.973Z,61.58
2018-11-02T19:37:46.127Z,61.83
2018-11-02T19:40:16.855Z,60.29
2018-11-02T19:42:46.043Z,59.58
2018-11-02T19:45:16.355Z,59.20
2018-11-02T19:47:54.775Z,58.19
2018-11-02T19:50:24.068Z,58.12
2018-11-02T19:52:53.204Z,58.94
2018-11-02T19:55:22.378Z,59.17
2018-11-02T19:57:51.576Z,59.21
2018-11-02T20:00:20.806Z,58.77
2018-11-02T20:02:50.058Z,57.96
2018-11-02T20:05:21.344Z,58.07
2018-11-02T20:07:50.503Z,57.14
2018-11-02T20:10:19.662Z,57.67
2018-11-02T20:12:49.160Z,57.36
2018-11-02T20:15:19.572Z,57.68
2018-11-02T20:17:48.880Z,57.25
2018-11-02T20:20:18.500Z,58.13
2018-11-02T20:22:47.838Z,56.82
2018-11-02T20:25:18.645Z,56.30
2018-11-02T20:27:47.869Z,57.01
2018-11-02T20:30:20.586Z,57.11
2018-11-02T20:32:49.744Z,57.38
2018-11-02T20:35:19.252Z,58.35
2018-11-02T20:37:48.588Z,58.39
2018-11-02T20:40:20.164Z,58.28
2018-11-02T20:42:49.380Z,57.75
2018-11-02T20:45:18.784Z,56.96
2018-11-02T20:47:53.823Z,57.25
2018-11-02T20:50:23.011Z,57.09
2018-11-02T20:52:52.724Z,57.24
2018-11-02T20:55:21.865Z,56.41
2018-11-02T20:57:51.023Z,55.86
2018-11-02T21:00:21.855Z,57.20
2018-11-02T21:02:51.231Z,57.62
2018-11-02T21:05:20.984Z,57.89
2018-11-02T21:07:50.712Z,57.78
2018-11-02T21:10:20.705Z,58.27
2018-11-02T21:12:50.384Z,58.50
2018-11-02T21:15:21.095Z,58.74
2018-11-02T21:17:50.748Z,58.77
2018-11-02T21:20:21.258Z,58.77
2018-11-02T21:22:50.405Z,58.99
2018-11-02T21:25:19.883Z,58.60
2018-11-02T21:27:49.375Z,58.66
2018-11-02T21:30:21.571Z,59.51
2018-11-02T21:32:52.032Z,59.34
2018-11-02T21:35:21.783Z,59.36
2018-11-02T21:37:52.361Z,59.74
2018-11-02T21:40:22.531Z,59.95
2018-11-02T21:42:51.787Z,59.66
2018-11-02T21:45:22.065Z,59.95
2018-11-02T21:47:51.290Z,60.17
2018-11-02T21:50:20.597Z,59.83
2018-11-02T21:52:49.788Z,59.97
2018-11-02T21:55:19.622Z,59.10
2018-11-02T21:57:48.818Z,59.66
2018-11-02T22:00:20.608Z,59.73
2018-11-02T22:02:49.844Z,59.56
2018-11-02T22:05:19.398Z,59.01
2018-11-02T22:07:49.394Z,58.68
2018-11-02T22:10:19.794Z,58.96
2018-11-02T22:12:48.992Z,58.94
2018-11-02T22:15:18.945Z,59.05
2018-11-02T22:17:48.119Z,58.74
2018-11-02T22:20:19.728Z,58.76
2018-11-02T22:22:48.954Z,57.23
2018-11-02T22:25:18.447Z,57.66
2018-11-02T22:27:47.619Z,58.27
2018-11-02T22:30:18.126Z,57.40
2018-11-02T22:32:47.259Z,57.97
2018-11-02T22:35:17.413Z,57.50
2018-11-02T22:37:46.751Z,57.76
2018-11-02T22:40:17.872Z,57.55
2018-11-02T22:42:47.135Z,57.49
2018-11-02T22:45:17.354Z,57.19
2018-11-02T22:47:51.779Z,57.11
2018-11-02T22:50:20.960Z,57.11
2018-11-02T22:52:50.178Z,57.08
2018-11-02T22:55:19.718Z,56.86
2018-11-02T22:57:48.919Z,57.30
2018-11-02T23:00:19.735Z,57.59
2018-11-02T23:02:49.389Z,57.94
2018-11-02T23:05:18.719Z,57.56
2018-11-02T23:07:47.951Z,58.04
2018-11-02T23:10:17.635Z,57.68
2018-11-02T23:12:46.809Z,57.11
2018-11-02T23:15:17.016Z,56.11
2018-11-02T23:17:46.252Z,56.90
2018-11-02T23:20:16.148Z,56.14
2018-11-02T23:22:45.519Z,55.94
2018-11-02T23:25:15.612Z,55.58
2018-11-02T23:27:45.275Z,56.25
2018-11-02T23:30:15.291Z,54.88
2018-11-02T23:32:44.483Z,55.24
2018-11-02T23:35:14.516Z,55.01
2018-11-02T23:37:43.766Z,54.54
2018-11-02T23:40:13.840Z,54.22
2018-11-02T23:42:43.050Z,54.93
2018-11-02T23:45:12.678Z,54.93
2018-11-02T23:47:47.028Z,54.25
2018-11-02T23:50:17.077Z,54.86
2018-11-02T23:52:46.227Z,55.37
2018-11-02T23:55:16.768Z,55.01
2018-11-02T23:57:45.925Z,54.29
